createdAt,value
2023-02-19T00:00:41.713Z,93.51
2023-02-19T00:03:12.892Z,93.54
2023-02-19T00:05:42.116Z,94.47
2023-02-19T00:08:11.185Z,93.89
2023-02-19T00:10:40.562Z,93.76
2023-02-19T00:13:14.812Z,93.61
2023-02-19T00:15:44.234Z,94.13
2023-02-19T00:21:01.713Z,94.69
2023-02-19T00:23:31.365Z,94.73
2023-02-19T00:26:17.100Z,95.00
2023-02-19T00:28:54.505Z,94.93
2023-02-19T00:31:25.617Z,95.59
2023-02-19T00:33:58.589Z,95.29
2023-02-19T00:36:29.079Z,95.04
2023-02-19T00:38:58.483Z,95.20
2023-02-19T00:41:28.578Z,95.12
2023-02-19T00:44:09.390Z,95.83
2023-02-19T00:46:40.370Z,96.23
2023-02-19T00:49:18.508Z,96.18
2023-02-19T00:51:48.031Z,96.44
2023-02-19T00:54:21.697Z,96.42
2023-02-19T00:56:50.926Z,96.96
2023-02-19T00:59:20.206Z,97.04
2023-02-19T01:04:26.159Z,97.64
2023-02-19T01:06:55.484Z,98.14
2023-02-19T01:09:29.601Z,97.52
2023-02-19T01:11:58.938Z,98.01
2023-02-19T01:14:28.771Z,98.15
2023-02-19T01:16:58.789Z,98.33
2023-02-19T01:19:29.843Z,97.79
2023-02-19T01:21:59.158Z,98.92
2023-02-19T01:24:29.854Z,98.58
2023-02-19T01:29:36.115Z,99.69
2023-02-19T01:32:05.426Z,100.00
2023-02-19T01:34:36.733Z,100.00
2023-02-19T01:37:10.723Z,100.00
2023-02-19T01:39:40.068Z,100.00
2023-02-19T01:42:16.434Z,100.00
2023-02-19T01:45:23.178Z,100.00
2023-02-19T01:48:07.246Z,100.00
2023-02-19T01:50:43.499Z,100.00
2023-02-19T01:53:22.071Z,100.00
2023-02-19T01:55:56.370Z,100.00
2023-02-19T01:58:27.818Z,100.00
2023-02-19T02:00:57.283Z,100.00
2023-02-19T02:03:27.033Z,100.00
2023-02-19T02:06:03.424Z,100.00
2023-02-19T02:08:47.786Z,100.00
2023-02-19T02:11:17.034Z,100.00
2023-02-19T02:13:52.754Z,100.00
2023-02-19T02:16:27.405Z,100.00
2023-02-19T02:19:09.401Z,100.00
2023-02-19T02:22:00.942Z,100.00
2023-02-19T02:24:55.927Z,100.00
2023-02-19T02:27:41.506Z,100.00
2023-02-19T02:30:32.067Z,100.00
2023-02-19T02:33:10.944Z,100.00
2023-02-19T02:35:47.692Z,100.00
2023-02-19T02:38:21.633Z,100.00
2023-02-19T02:40:51.115Z,100.00
2023-02-19T02:43:20.804Z,100.00
2023-02-19T02:45:52.277Z,100.00
2023-02-19T02:48:36.446Z,100.00
2023-02-19T02:51:12.718Z,100.00
2023-02-19T02:54:09.318Z,100.00
2023-02-19T02:56:45.041Z,100.00
2023-02-19T02:59:16.449Z,100.00
2023-02-19T03:02:04.496Z,100.00
2023-02-19T03:04:59.833Z,100.00
2023-02-19T03:07:40.402Z,100.00
2023-02-19T03:10:14.474Z,100.00
2023-02-19T03:13:05.022Z,100.00
2023-02-19T03:15:58.434Z,100.00
2023-02-19T03:18:44.848Z,100.00
2023-02-19T03:21:16.285Z,100.00
2023-02-19T03:26:37.101Z,100.00
2023-02-19T03:29:32.232Z,100.00
2023-02-19T03:32:10.500Z,100.00
2023-02-19T03:37:39.974Z,100.00
2023-02-19T03:40:10.969Z,100.00
2023-02-19T03:42:45.968Z,100.00
2023-02-19T03:45:33.601Z,100.00
2023-02-19T03:48:15.029Z,100.00
2023-02-19T03:51:05.920Z,100.00
2023-02-19T03:53:40.052Z,100.00
2023-02-19T03:56:13.514Z,100.00
2023-02-19T03:58:51.998Z,100.00
2023-02-19T04:01:28.009Z,100.00
2023-02-19T04:04:01.669Z,100.00
2023-02-19T04:06:35.964Z,100.00
2023-02-19T04:09:10.580Z,100.00
2023-02-19T04:14:21.696Z,100.00
2023-02-19T04:19:42.423Z,100.00
2023-02-19T04:22:15.092Z,100.00
2023-02-19T04:24:49.532Z,100.00
2023-02-19T04:27:24.178Z,100.00
2023-02-19T04:29:53.283Z,100.00
2023-02-19T04:32:22.460Z,99.90
2023-02-19T04:34:53.972Z,100.00
2023-02-19T04:37:25.410Z,100.00
2023-02-19T04:40:02.482Z,100.00
2023-02-19T04:42:32.959Z,100.00
2023-02-19T04:45:02.185Z,100.00
2023-02-19T04:47:34.540Z,100.00
2023-02-19T04:50:13.820Z,100.00
2023-02-19T04:52:50.161Z,99.90
2023-02-19T04:55:30.901Z,99.90
2023-02-19T04:58:00.163Z,100.00
2023-02-19T05:00:29.326Z,100.00
2023-02-19T05:05:39.125Z,100.00
2023-02-19T05:08:15.276Z,100.00
2023-02-19T05:10:44.473Z,100.00
2023-02-19T05:13:13.668Z,100.00
2023-02-19T05:15:57.563Z,100.00
2023-02-19T05:18:27.167Z,100.00
2023-02-19T05:20:56.524Z,100.00
2023-02-19T05:23:29.002Z,100.00
2023-02-19T05:25:58.244Z,100.00
2023-02-19T05:28:30.418Z,100.00
2023-02-19T05:30:59.667Z,100.00
2023-02-19T05:33:28.913Z,100.00
2023-02-19T05:36:03.227Z,100.00
2023-02-19T05:38:36.052Z,100.00
2023-02-19T05:41:13.868Z,100.00
2023-02-19T05:43:44.392Z,100.00
2023-02-19T05:48:53.310Z,100.00
2023-02-19T05:51:24.072Z,100.00
2023-02-19T05:53:55.810Z,100.00
2023-02-19T05:56:43.365Z,100.00
2023-02-19T05:59:18.317Z,100.00
2023-02-19T06:01:47.677Z,100.00
2023-02-19T06:07:08.178Z,100.00
2023-02-19T06:09:42.480Z,100.00
2023-02-19T06:12:11.785Z,100.00
2023-02-19T06:14:40.843Z,100.00
2023-02-19T06:17:10.139Z,100.00
2023-02-19T06:19:39.539Z,100.00
2023-02-19T06:22:09.305Z,100.00
2023-02-19T06:24:46.415Z,100.00
2023-02-19T06:27:21.155Z,100.00
2023-02-19T06:29:50.658Z,100.00
2023-02-19T06:32:20.081Z,100.00
2023-02-19T06:34:49.575Z,100.00
2023-02-19T06:37:18.921Z,100.00
2023-02-19T06:39:50.638Z,100.00
2023-02-19T06:42:19.910Z,100.00
2023-02-19T06:44:48.982Z,100.00
2023-02-19T06:47:18.634Z,100.00
2023-02-19T06:49:47.742Z,100.00
2023-02-19T06:52:18.269Z,100.00
2023-02-19T06:54:54.461Z,100.00
2023-02-19T06:57:23.700Z,100.00
2023-02-19T06:59:52.736Z,100.00
2023-02-19T07:02:26.988Z,100.00
2023-02-19T07:04:56.313Z,100.00
2023-02-19T07:07:25.483Z,100.00
2023-02-19T07:10:02.763Z,100.00
2023-02-19T07:12:33.556Z,100.00
2023-02-19T07:15:03.580Z,100.00
2023-02-19T07:17:41.399Z,100.00
2023-02-19T07:20:16.216Z,100.00
2023-02-19T07:22:50.385Z,100.00
2023-02-19T07:25:21.665Z,100.00
2023-02-19T07:27:50.868Z,100.00
2023-02-19T07:30:20.181Z,100.00
2023-02-19T07:32:59.506Z,100.00
2023-02-19T07:35:31.168Z,100.00
2023-02-19T07:38:00.585Z,100.00
2023-02-19T07:40:31.679Z,100.00
2023-02-19T07:43:02.058Z,100.00
2023-02-19T07:45:31.310Z,100.00
2023-02-19T07:48:00.465Z,100.00
2023-02-19T07:50:35.813Z,100.00
2023-02-19T07:53:05.115Z,100.00
2023-02-19T07:55:37.402Z,100.00
2023-02-19T07:58:06.634Z,100.00
2023-02-19T08:00:35.997Z,100.00
2023-02-19T08:03:05.313Z,100.00
2023-02-19T08:05:38.638Z,99.92
2023-02-19T08:08:09.620Z,100.00
2023-02-19T08:10:54.195Z,100.00
2023-02-19T08:13:30.034Z,100.00
2023-02-19T08:16:18.640Z,100.00
2023-02-19T08:18:57.379Z,99.99
2023-02-19T08:21:26.581Z,100.00
2023-02-19T08:23:55.677Z,100.00
2023-02-19T08:29:07.894Z,99.91
2023-02-19T08:31:38.104Z,99.92
2023-02-19T08:34:07.606Z,99.78
2023-02-19T08:36:37.028Z,100.00
2023-02-19T08:39:06.397Z,99.87
2023-02-19T08:41:42.862Z,99.87
2023-02-19T08:44:12.003Z,99.98
2023-02-19T08:46:41.190Z,99.79
2023-02-19T08:49:10.369Z,99.26
2023-02-19T08:51:39.524Z,99.59
2023-02-19T08:54:14.772Z,99.46
2023-02-19T08:56:45.879Z,98.96
2023-02-19T08:59:15.957Z,99.71
2023-02-19T09:01:45.031Z,99.10
2023-02-19T09:04:15.033Z,99.26
2023-02-19T09:06:44.221Z,99.33
2023-02-19T09:09:13.265Z,99.29
2023-02-19T09:11:42.432Z,99.61
2023-02-19T09:14:13.700Z,99.63
2023-02-19T09:16:43.360Z,100.00
2023-02-19T09:19:14.298Z,99.24
2023-02-19T09:21:45.316Z,98.74
2023-02-19T09:24:19.864Z,98.91
2023-02-19T09:26:51.732Z,98.22
2023-02-19T09:29:23.070Z,99.91
2023-02-19T09:31:52.310Z,99.60
2023-02-19T09:34:21.430Z,98.17
2023-02-19T09:36:51.371Z,98.29
2023-02-19T09:39:20.747Z,97.98
2023-02-19T09:41:57.070Z,98.32
2023-02-19T09:44:34.710Z,97.51
2023-02-19T09:47:08.641Z,98.07
2023-02-19T09:49:40.885Z,98.22
2023-02-19T09:52:15.391Z,98.85
2023-02-19T09:54:45.486Z,98.53
2023-02-19T09:57:18.268Z,97.97
2023-02-19T09:59:53.101Z,97.77
2023-02-19T10:02:25.336Z,98.08
2023-02-19T10:04:55.363Z,97.77
2023-02-19T10:07:26.872Z,97.68
2023-02-19T10:09:59.296Z,97.92
2023-02-19T10:12:34.247Z,97.85
2023-02-19T10:15:14.070Z,97.54
2023-02-19T10:17:43.432Z,97.96
2023-02-19T10:20:16.878Z,98.29
2023-02-19T10:22:46.885Z,98.63
2023-02-19T10:25:18.340Z,98.49
2023-02-19T10:27:53.955Z,98.29
2023-02-19T10:30:28.106Z,97.84
2023-02-19T10:33:03.383Z,97.93
2023-02-19T10:35:37.193Z,97.88
2023-02-19T10:38:08.763Z,98.35
2023-02-19T10:40:38.135Z,98.71
2023-02-19T10:43:07.924Z,98.08
2023-02-19T10:45:48.042Z,98.30
2023-02-19T10:48:25.363Z,98.22
2023-02-19T10:50:57.720Z,98.22
2023-02-19T10:53:40.778Z,98.33
2023-02-19T10:56:17.268Z,98.42
2023-02-19T10:58:47.278Z,97.80
2023-02-19T11:01:23.682Z,97.66
2023-02-19T11:03:54.066Z,97.87
2023-02-19T11:06:29.981Z,97.59
2023-02-19T11:09:01.744Z,97.23
2023-02-19T11:11:38.372Z,97.30
2023-02-19T11:14:16.719Z,96.63
2023-02-19T11:16:51.590Z,96.59
2023-02-19T11:19:34.261Z,96.09
2023-02-19T11:22:04.730Z,96.74
2023-02-19T11:24:37.147Z,97.03
2023-02-19T11:27:21.138Z,96.54
2023-02-19T11:29:55.475Z,97.00
2023-02-19T11:32:37.596Z,96.91
2023-02-19T11:35:18.342Z,96.78
2023-02-19T11:38:01.610Z,97.09
2023-02-19T11:40:43.610Z,96.94
2023-02-19T11:46:19.285Z,96.87
2023-02-19T11:49:03.433Z,97.04
2023-02-19T11:52:01.981Z,97.26
2023-02-19T11:54:51.675Z,97.01
2023-02-19T11:57:36.685Z,96.63
2023-02-19T12:00:29.082Z,96.48
2023-02-19T12:03:36.442Z,96.39
2023-02-19T12:06:29.549Z,96.82
2023-02-19T12:09:34.324Z,96.44
2023-02-19T12:12:23.916Z,96.84
2023-02-19T12:15:19.732Z,96.34
2023-02-19T12:18:03.775Z,96.77
2023-02-19T12:20:42.576Z,97.07
2023-02-19T12:23:35.432Z,96.46
2023-02-19T12:26:09.242Z,96.71
2023-02-19T12:29:11.300Z,96.69
2023-02-19T12:32:01.741Z,96.70
2023-02-19T12:34:52.116Z,97.15
2023-02-19T12:37:33.594Z,97.53
2023-02-19T12:40:21.052Z,96.90
2023-02-19T12:43:01.912Z,97.19
2023-02-19T12:45:38.479Z,97.15
2023-02-19T12:53:40.865Z,96.71
2023-02-19T12:56:16.597Z,96.40
2023-02-19T12:58:50.072Z,96.76
2023-02-19T13:01:24.144Z,97.21
2023-02-19T13:04:17.649Z,97.09
2023-02-19T13:06:53.394Z,97.29
2023-02-19T13:09:29.903Z,96.82
2023-02-19T13:12:03.782Z,97.27
2023-02-19T13:14:47.236Z,97.29
2023-02-19T13:17:29.336Z,97.39
2023-02-19T13:20:04.897Z,99.14
2023-02-19T13:22:54.387Z,98.12
2023-02-19T13:25:49.040Z,97.42
2023-02-19T13:28:43.921Z,97.41
2023-02-19T13:31:49.905Z,97.37
2023-02-19T13:34:30.798Z,97.16
2023-02-19T13:37:01.588Z,97.01
2023-02-19T13:39:31.264Z,97.16
2023-02-19T13:42:03.406Z,96.91
2023-02-19T13:44:34.864Z,97.32
2023-02-19T13:47:11.038Z,97.76
2023-02-19T13:49:46.136Z,97.72
2023-02-19T13:52:45.666Z,97.45
2023-02-19T13:55:53.943Z,97.94
2023-02-19T13:58:55.605Z,97.89
2023-02-19T14:02:16.251Z,97.72
2023-02-19T14:04:54.308Z,97.61
2023-02-19T14:07:55.945Z,97.14
2023-02-19T14:10:58.890Z,97.67
2023-02-19T14:13:57.902Z,97.78
2023-02-19T14:17:02.364Z,97.08
2023-02-19T14:19:49.104Z,97.52
2023-02-19T14:22:56.553Z,97.64
2023-02-19T14:25:41.538Z,97.30
2023-02-19T14:28:35.096Z,97.59
2023-02-19T14:31:21.134Z,97.34
2023-02-19T14:33:54.991Z,98.01
2023-02-19T14:36:48.168Z,97.56
2023-02-19T14:39:21.004Z,97.90
2023-02-19T14:41:53.745Z,98.08
2023-02-19T14:44:25.823Z,97.91
2023-02-19T14:46:59.351Z,97.88
2023-02-19T14:52:31.736Z,98.10
2023-02-19T14:57:43.449Z,99.00
2023-02-19T15:00:25.935Z,98.20
2023-02-19T15:02:57.390Z,98.60
2023-02-19T15:05:30.893Z,98.28
2023-02-19T15:08:09.279Z,97.96
2023-02-19T15:10:40.391Z,98.22
2023-02-19T15:13:17.086Z,98.57
2023-02-19T15:15:50.591Z,98.19
2023-02-19T15:18:27.470Z,98.24
2023-02-19T15:21:10.199Z,98.38
2023-02-19T15:23:45.500Z,98.65
2023-02-19T15:26:22.937Z,98.63
2023-02-19T15:29:03.106Z,98.28
2023-02-19T15:31:46.337Z,98.27
2023-02-19T15:34:20.970Z,98.30
2023-02-19T15:36:52.601Z,98.45
2023-02-19T15:39:26.358Z,98.35
2023-02-19T15:42:00.231Z,98.40
2023-02-19T15:44:42.010Z,98.52
2023-02-19T15:47:19.798Z,98.31
2023-02-19T15:49:57.034Z,98.71
2023-02-19T15:52:38.173Z,98.62
2023-02-19T15:55:23.969Z,98.34
2023-02-19T15:57:59.230Z,98.86
2023-02-19T16:00:40.561Z,98.41
2023-02-19T16:03:18.473Z,98.21
2023-02-19T16:05:48.473Z,98.35
2023-02-19T16:08:23.244Z,98.02
2023-02-19T16:10:59.826Z,98.10
2023-02-19T16:13:31.163Z,98.44
2023-02-19T16:16:08.094Z,98.23
2023-02-19T16:18:37.367Z,98.42
2023-02-19T16:21:10.859Z,98.59
2023-02-19T16:23:44.743Z,98.35
2023-02-19T16:26:16.506Z,98.48
2023-02-19T16:28:46.037Z,98.59
2023-02-19T16:31:16.566Z,98.93
2023-02-19T16:33:48.226Z,99.00
2023-02-19T16:36:18.243Z,99.70
2023-02-19T16:39:06.448Z,99.31
2023-02-19T16:42:10.665Z,99.06
2023-02-19T16:44:39.850Z,98.95
2023-02-19T16:47:15.489Z,99.21
2023-02-19T16:52:30.790Z,99.09
2023-02-19T16:57:57.382Z,99.65
2023-02-19T17:00:33.440Z,99.15
2023-02-19T17:03:08.530Z,99.07
2023-02-19T17:08:30.769Z,99.33
2023-02-19T17:11:05.400Z,99.29
2023-02-19T17:13:36.587Z,99.47
2023-02-19T17:16:18.885Z,99.33
2023-02-19T17:18:48.396Z,99.56
2023-02-19T17:21:27.084Z,99.49
2023-02-19T17:24:01.553Z,99.30
2023-02-19T17:26:33.309Z,99.83
2023-02-19T17:29:13.582Z,99.75
2023-02-19T17:31:43.075Z,99.77
2023-02-19T17:34:13.778Z,99.51
2023-02-19T17:36:45.167Z,99.81
2023-02-19T17:39:16.799Z,100.00
2023-02-19T17:41:46.034Z,99.81
2023-02-19T17:44:17.248Z,99.85
2023-02-19T17:46:48.888Z,99.38
2023-02-19T17:49:19.213Z,99.63
2023-02-19T17:51:48.458Z,99.41
2023-02-19T17:54:28.440Z,99.58
2023-02-19T17:56:57.662Z,99.79
2023-02-19T17:59:28.816Z,99.72
2023-02-19T18:01:58.022Z,99.84
2023-02-19T18:04:32.239Z,100.00
2023-02-19T18:07:02.485Z,99.82
2023-02-19T18:09:31.595Z,99.74
2023-02-19T18:12:00.695Z,99.65
2023-02-19T18:14:31.698Z,99.60
2023-02-19T18:17:01.080Z,99.82
2023-02-19T18:19:30.562Z,100.00
2023-02-19T18:21:59.835Z,99.98
2023-02-19T18:24:31.235Z,99.86
2023-02-19T18:27:00.729Z,100.00
2023-02-19T18:29:34.997Z,99.57
2023-02-19T18:32:04.579Z,99.89
2023-02-19T18:34:33.927Z,99.67
2023-02-19T18:37:03.411Z,99.86
2023-02-19T18:39:32.743Z,99.81
2023-02-19T18:42:02.580Z,99.75
2023-02-19T18:44:33.726Z,100.00
2023-02-19T18:47:02.960Z,99.90
2023-02-19T18:49:32.072Z,99.93
2023-02-19T18:52:02.396Z,99.83
2023-02-19T18:54:33.111Z,100.00
2023-02-19T18:57:03.429Z,100.00
2023-02-19T18:59:39.802Z,100.00
2023-02-19T19:02:09.405Z,99.79
2023-02-19T19:04:41.087Z,99.67
2023-02-19T19:07:12.599Z,100.00
2023-02-19T19:09:41.750Z,99.76
2023-02-19T19:12:10.920Z,99.86
2023-02-19T19:14:42.410Z,99.62
2023-02-19T19:17:11.567Z,100.00
2023-02-19T19:19:49.554Z,99.67
2023-02-19T19:22:22.320Z,100.00
2023-02-19T19:24:57.944Z,99.65
2023-02-19T19:27:27.111Z,99.88
2023-02-19T19:29:59.563Z,99.99
2023-02-19T19:32:28.969Z,99.67
2023-02-19T19:34:59.009Z,99.99
2023-02-19T19:37:28.855Z,99.54
2023-02-19T19:39:58.255Z,99.52
2023-02-19T19:42:27.673Z,99.87
2023-02-19T19:44:59.188Z,99.90
2023-02-19T19:47:28.763Z,99.37
2023-02-19T19:49:57.790Z,99.48
2023-02-19T19:52:26.972Z,99.81
2023-02-19T19:54:56.042Z,99.46
2023-02-19T19:57:25.227Z,99.76
2023-02-19T20:00:00.120Z,99.55
2023-02-19T20:02:31.730Z,99.80
2023-02-19T20:05:01.029Z,99.58
2023-02-19T20:07:30.227Z,99.72
2023-02-19T20:09:59.492Z,99.61
2023-02-19T20:12:33.785Z,99.03
2023-02-19T20:15:03.128Z,99.41
2023-02-19T20:17:39.990Z,99.59
2023-02-19T20:20:14.816Z,99.41
2023-02-19T20:22:43.978Z,99.48
2023-02-19T20:25:13.869Z,99.64
2023-02-19T20:27:43.113Z,99.12
2023-02-19T20:30:15.285Z,99.39
2023-02-19T20:32:46.543Z,99.69
2023-02-19T20:35:21.325Z,99.37
2023-02-19T20:37:50.530Z,99.29
2023-02-19T20:40:20.615Z,99.36
2023-02-19T20:42:49.810Z,99.33
2023-02-19T20:45:18.987Z,99.30
2023-02-19T20:47:49.925Z,99.63
2023-02-19T20:50:24.439Z,99.40
2023-02-19T20:52:55.302Z,99.63
2023-02-19T20:55:25.509Z,99.73
2023-02-19T20:57:59.722Z,100.00
2023-02-19T21:00:28.731Z,99.45
2023-02-19T21:02:59.980Z,99.42
2023-02-19T21:05:29.156Z,99.64
2023-02-19T21:07:58.454Z,99.81
2023-02-19T21:10:32.923Z,99.72
2023-02-19T21:13:02.264Z,99.64
2023-02-19T21:15:31.329Z,99.52
2023-02-19T21:18:04.561Z,99.56
2023-02-19T21:20:34.485Z,99.71
2023-02-19T21:23:03.681Z,99.61
2023-02-19T21:25:37.935Z,99.79
2023-02-19T21:28:08.688Z,99.78
2023-02-19T21:30:37.850Z,99.67
2023-02-19T21:33:09.304Z,99.71
2023-02-19T21:35:38.606Z,100.00
2023-02-19T21:38:07.731Z,99.79
2023-02-19T21:40:41.997Z,99.60
2023-02-19T21:43:12.352Z,99.99
2023-02-19T21:45:42.217Z,99.76
2023-02-19T21:48:13.439Z,99.83
2023-02-19T21:50:45.338Z,99.74
2023-02-19T21:53:14.596Z,100.00
2023-02-19T21:55:57.486Z,100.00
2023-02-19T21:58:28.128Z,99.15
2023-02-19T22:00:57.794Z,99.19
2023-02-19T22:03:29.320Z,98.79
2023-02-19T22:05:58.543Z,99.04
2023-02-19T22:08:27.674Z,99.10
2023-02-19T22:10:59.786Z,99.16
2023-02-19T22:13:28.896Z,99.11
2023-02-19T22:15:57.901Z,99.08
2023-02-19T22:18:34.059Z,99.06
2023-02-19T22:21:05.180Z,98.99
2023-02-19T22:23:35.420Z,99.16
2023-02-19T22:26:04.607Z,99.44
2023-02-19T22:28:33.673Z,99.61
2023-02-19T22:31:02.807Z,99.50
2023-02-19T22:33:33.924Z,99.25
2023-02-19T22:36:03.886Z,99.63
2023-02-19T22:38:33.023Z,99.82
2023-02-19T22:41:07.195Z,99.31
2023-02-19T22:43:36.605Z,99.52
2023-02-19T22:46:06.668Z,99.71
2023-02-19T22:48:42.949Z,99.35
2023-02-19T22:51:18.299Z,99.82
2023-02-19T22:53:50.828Z,99.50
2023-02-19T22:56:22.097Z,99.55
2023-02-19T22:58:51.805Z,99.70
2023-02-19T23:01:21.816Z,99.85
2023-02-19T23:03:56.154Z,99.41
2023-02-19T23:06:28.032Z,99.19
2023-02-19T23:09:05.444Z,99.61
2023-02-19T23:11:39.042Z,99.20
2023-02-19T23:14:09.464Z,98.96
2023-02-19T23:16:38.781Z,99.53
2023-02-19T23:19:12.053Z,99.48
2023-02-19T23:21:41.660Z,99.93
2023-02-19T23:24:11.091Z,99.46
2023-02-19T23:26:46.346Z,99.72
2023-02-19T23:29:25.826Z,99.54
2023-02-19T23:31:55.535Z,99.85
2023-02-19T23:34:26.676Z,99.84
2023-02-19T23:36:59.128Z,100.00
2023-02-19T23:39:28.567Z,100.00
2023-02-19T23:41:59.037Z,99.80
2023-02-19T23:44:33.396Z,99.69
2023-02-19T23:47:02.504Z,99.76
2023-02-19T23:49:33.636Z,99.45
2023-02-19T23:52:02.842Z,99.90
2023-02-19T23:54:31.906Z,99.65
2023-02-19T23:57:12.590Z,99.87
2023-02-19T23:59:48.655Z,99.68
